createdAt,value
2022-11-21T00:00:53.631Z,87.80
2022-11-21T00:03:21.175Z,87.60
2022-11-21T00:05:49.572Z,87.90
2022-11-21T00:08:19.756Z,87.80
2022-11-21T00:10:47.350Z,87.70
2022-11-21T00:13:16.892Z,87.80
2022-11-21T00:15:43.973Z,87.90
2022-11-21T00:18:14.122Z,88.00
2022-11-21T00:20:41.649Z,88.10
2022-11-21T00:23:08.935Z,88.00
2022-11-21T00:25:36.590Z,88.10
2022-11-21T00:28:04.242Z,88.20
2022-11-21T00:30:31.110Z,88.30
2022-11-21T00:33:00.711Z,88.30
2022-11-21T00:35:27.717Z,88.40
2022-11-21T00:37:54.598Z,88.40
2022-11-21T00:40:21.724Z,88.40
2022-11-21T00:42:48.475Z,88.30
2022-11-21T00:45:19.672Z,88.30
2022-11-21T00:47:49.707Z,88.30
2022-11-21T00:50:16.563Z,88.30
2022-11-21T00:52:43.385Z,88.40
2022-11-21T00:55:10.463Z,88.60
2022-11-21T00:57:37.330Z,88.00
2022-11-21T01:00:05.353Z,88.50
2022-11-21T01:02:32.942Z,88.90
2022-11-21T01:04:59.998Z,88.90
2022-11-21T01:07:26.909Z,88.80
2022-11-21T01:09:53.874Z,88.60
2022-11-21T01:12:20.640Z,88.90
2022-11-21T01:14:47.484Z,88.50
2022-11-21T01:17:14.535Z,88.60
2022-11-21T01:19:41.347Z,88.60
2022-11-21T01:22:08.348Z,88.50
2022-11-21T01:24:35.212Z,88.60
2022-11-21T01:27:01.939Z,88.60
2022-11-21T01:29:28.715Z,88.70
2022-11-21T01:31:55.515Z,88.60
2022-11-21T01:34:22.607Z,88.70
2022-11-21T01:36:49.462Z,88.90
2022-11-21T01:39:16.276Z,88.80
2022-11-21T01:41:45.489Z,88.70
2022-11-21T01:44:44.287Z,88.90
2022-11-21T01:47:11.358Z,88.80
2022-11-21T01:49:38.637Z,88.60
2022-11-21T01:52:12.890Z,88.80
2022-11-21T01:54:55.494Z,88.70
2022-11-21T01:57:28.530Z,88.80
2022-11-21T01:59:58.154Z,88.70
2022-11-21T02:02:29.607Z,88.60
2022-11-21T02:04:57.847Z,88.90
2022-11-21T02:07:26.360Z,88.70
2022-11-21T02:09:57.574Z,88.70
2022-11-21T02:12:36.991Z,88.70
2022-11-21T02:15:04.306Z,88.70
2022-11-21T02:17:31.761Z,88.70
2022-11-21T02:20:05.137Z,88.70
2022-11-21T02:22:47.135Z,88.80
2022-11-21T02:25:26.751Z,88.70
2022-11-21T02:28:01.731Z,88.90
2022-11-21T02:30:33.187Z,89.00
2022-11-21T02:33:00.068Z,88.90
2022-11-21T02:35:26.994Z,88.80
2022-11-21T02:38:03.962Z,89.00
2022-11-21T02:40:41.322Z,89.00
2022-11-21T02:43:18.145Z,89.00
2022-11-21T02:45:46.565Z,89.00
2022-11-21T02:48:13.999Z,88.90
2022-11-21T02:50:42.646Z,89.20
2022-11-21T02:53:13.807Z,89.10
2022-11-21T02:55:40.952Z,89.50
2022-11-21T02:58:07.811Z,89.50
2022-11-21T03:00:36.824Z,89.50
2022-11-21T03:03:04.050Z,89.50
2022-11-21T03:05:31.383Z,89.40
2022-11-21T03:07:58.235Z,89.60
2022-11-21T03:10:25.498Z,89.70
2022-11-21T03:13:01.173Z,89.80
2022-11-21T03:15:30.795Z,89.70
2022-11-21T03:17:58.385Z,89.60
2022-11-21T03:20:25.225Z,89.30
2022-11-21T03:22:53.584Z,89.80
2022-11-21T03:25:21.166Z,90.10
2022-11-21T03:27:52.462Z,90.30
2022-11-21T03:30:23.836Z,90.20
2022-11-21T03:32:50.969Z,90.20
2022-11-21T03:35:18.018Z,90.10
2022-11-21T03:37:44.822Z,90.10
2022-11-21T03:40:12.217Z,90.10
2022-11-21T03:42:39.064Z,90.10
2022-11-21T03:45:06.594Z,90.10
2022-11-21T03:47:33.424Z,90.10
2022-11-21T03:50:00.257Z,90.10
2022-11-21T03:52:27.109Z,90.10
2022-11-21T03:54:53.860Z,90.10
2022-11-21T03:57:20.688Z,90.10
2022-11-21T03:59:47.497Z,90.10
2022-11-21T04:02:14.312Z,90.10
2022-11-21T04:04:41.288Z,90.10
2022-11-21T04:07:08.626Z,90.10
2022-11-21T04:09:35.431Z,90.10
2022-11-21T04:12:07.301Z,90.00
2022-11-21T04:14:34.790Z,90.00
2022-11-21T04:17:01.873Z,89.80
2022-11-21T04:19:28.689Z,89.80
2022-11-21T04:21:55.441Z,89.90
2022-11-21T04:24:22.245Z,89.70
2022-11-21T04:26:49.055Z,89.80
2022-11-21T04:29:15.854Z,89.70
2022-11-21T04:31:42.598Z,89.50
2022-11-21T04:34:09.453Z,89.60
2022-11-21T04:36:36.281Z,89.70
2022-11-21T04:39:03.187Z,89.50
2022-11-21T04:41:30.466Z,89.40
2022-11-21T04:43:57.273Z,89.40
2022-11-21T04:46:24.073Z,89.60
2022-11-21T04:48:50.807Z,89.60
2022-11-21T04:51:17.630Z,89.60
2022-11-21T04:53:44.370Z,89.60
2022-11-21T04:56:11.424Z,89.70
2022-11-21T04:58:38.228Z,89.80
2022-11-21T05:01:09.452Z,89.80
2022-11-21T05:03:37.087Z,89.70
2022-11-21T05:06:04.372Z,90.00
2022-11-21T05:08:31.399Z,90.00
2022-11-21T05:11:17.009Z,90.00
2022-11-21T05:13:43.769Z,90.00
2022-11-21T05:16:10.645Z,90.00
2022-11-21T05:18:37.398Z,90.00
2022-11-21T05:21:04.507Z,90.10
2022-11-21T05:23:31.570Z,90.10
2022-11-21T05:25:58.374Z,90.20
2022-11-21T05:28:25.134Z,90.10
2022-11-21T05:30:52.007Z,90.10
2022-11-21T05:33:19.461Z,90.20
2022-11-21T05:35:46.496Z,90.20
2022-11-21T05:38:13.609Z,90.30
2022-11-21T05:40:40.469Z,90.10
2022-11-21T05:43:26.481Z,90.20
2022-11-21T05:45:53.276Z,90.30
2022-11-21T05:48:20.236Z,90.40
2022-11-21T05:50:49.597Z,90.40
2022-11-21T05:53:17.698Z,90.40
2022-11-21T05:55:44.991Z,90.50
2022-11-21T05:58:12.078Z,90.90
2022-11-21T06:00:39.209Z,90.50
2022-11-21T06:03:25.313Z,90.60
2022-11-21T06:05:52.508Z,90.60
2022-11-21T06:08:19.415Z,90.70
2022-11-21T06:10:46.370Z,90.60
2022-11-21T06:13:22.340Z,90.60
2022-11-21T06:16:02.012Z,90.70
2022-11-21T06:18:31.530Z,90.60
2022-11-21T06:21:05.460Z,90.70
2022-11-21T06:23:32.595Z,90.60
2022-11-21T06:26:02.736Z,90.70
2022-11-21T06:28:38.685Z,90.60
2022-11-21T06:31:07.116Z,90.50
2022-11-21T06:33:34.841Z,90.50
2022-11-21T06:36:07.010Z,90.50
2022-11-21T06:38:34.505Z,90.40
2022-11-21T06:41:11.259Z,90.50
2022-11-21T06:43:38.342Z,90.40
2022-11-21T06:46:05.230Z,90.40
2022-11-21T06:48:33.093Z,90.30
2022-11-21T06:51:21.254Z,90.20
2022-11-21T06:53:56.544Z,90.90
2022-11-21T06:56:28.125Z,90.90
2022-11-21T06:58:55.937Z,90.80
2022-11-21T07:01:23.141Z,90.80
2022-11-21T07:03:50.044Z,90.80
2022-11-21T07:06:16.939Z,90.80
2022-11-21T07:08:43.752Z,90.80
2022-11-21T07:11:28.790Z,90.80
2022-11-21T07:13:56.526Z,90.80
2022-11-21T07:16:26.290Z,90.80
2022-11-21T07:18:53.486Z,90.90
2022-11-21T07:21:20.281Z,90.90
2022-11-21T07:23:47.074Z,90.90
2022-11-21T07:26:14.086Z,90.90
2022-11-21T07:28:40.979Z,91.00
2022-11-21T07:31:13.474Z,90.80
2022-11-21T07:33:43.338Z,90.80
2022-11-21T07:36:10.829Z,90.80
2022-11-21T07:38:37.594Z,91.20
2022-11-21T07:41:04.556Z,90.70
2022-11-21T07:43:31.398Z,90.70
2022-11-21T07:45:58.158Z,90.70
2022-11-21T07:48:25.046Z,90.60
2022-11-21T07:50:52.013Z,90.60
2022-11-21T07:53:18.810Z,90.50
2022-11-21T07:55:45.565Z,90.50
2022-11-21T07:58:16.119Z,90.40
2022-11-21T08:00:43.286Z,90.40
2022-11-21T08:03:14.879Z,90.30
2022-11-21T08:05:44.267Z,90.30
2022-11-21T08:08:12.804Z,90.30
2022-11-21T08:10:42.033Z,90.30
2022-11-21T08:13:09.073Z,90.20
2022-11-21T08:15:36.759Z,90.20
2022-11-21T08:18:15.073Z,90.10
2022-11-21T08:20:42.875Z,90.10
2022-11-21T08:23:10.898Z,90.10
2022-11-21T08:25:39.135Z,90.00
2022-11-21T08:28:07.020Z,90.00
2022-11-21T08:30:35.072Z,90.00
2022-11-21T08:33:02.834Z,89.90
2022-11-21T08:35:29.934Z,89.90
2022-11-21T08:37:57.898Z,89.90
2022-11-21T08:40:26.238Z,89.90
2022-11-21T08:43:07.620Z,89.70
2022-11-21T08:45:35.783Z,89.60
2022-11-21T08:48:02.913Z,89.50
2022-11-21T08:50:29.782Z,89.50
2022-11-21T08:53:01.758Z,89.40
2022-11-21T08:55:29.588Z,89.40
2022-11-21T08:57:56.424Z,89.40
2022-11-21T09:00:23.770Z,89.30
2022-11-21T09:02:50.602Z,89.30
2022-11-21T09:05:17.653Z,89.20
2022-11-21T09:07:44.620Z,89.00
2022-11-21T09:10:11.568Z,89.10
2022-11-21T09:12:38.382Z,89.00
2022-11-21T09:15:24.882Z,88.90
2022-11-21T09:18:03.810Z,88.90
2022-11-21T09:20:44.626Z,88.80
2022-11-21T09:23:15.115Z,88.80
2022-11-21T09:25:42.308Z,88.70
2022-11-21T09:28:12.162Z,88.70
2022-11-21T09:30:39.774Z,88.60
2022-11-21T09:33:12.632Z,88.50
2022-11-21T09:35:39.587Z,88.40
2022-11-21T09:38:06.651Z,88.40
2022-11-21T09:40:35.289Z,88.40
2022-11-21T09:43:39.790Z,88.20
2022-11-21T09:46:17.711Z,88.20
2022-11-21T09:48:58.262Z,88.10
2022-11-21T09:51:27.780Z,88.10
2022-11-21T09:53:59.768Z,88.00
2022-11-21T09:56:31.139Z,87.70
2022-11-21T09:59:07.515Z,87.70
2022-11-21T10:01:34.729Z,87.90
2022-11-21T10:04:03.853Z,87.70
2022-11-21T10:06:36.734Z,87.60
2022-11-21T10:09:09.714Z,87.50
2022-11-21T10:12:37.035Z,87.60
2022-11-21T10:15:13.403Z,87.40
2022-11-21T10:17:49.609Z,87.30
2022-11-21T10:20:28.138Z,87.40
2022-11-21T10:23:17.218Z,87.30
2022-11-21T10:25:52.577Z,87.40
2022-11-21T10:28:41.467Z,87.30
2022-11-21T10:31:13.316Z,87.30
2022-11-21T10:33:41.109Z,87.20
2022-11-21T10:36:20.882Z,87.30
2022-11-21T10:38:50.341Z,87.10
2022-11-21T10:41:48.608Z,86.90
2022-11-21T10:44:48.859Z,87.00
2022-11-21T10:47:31.443Z,86.60
2022-11-21T10:50:12.904Z,86.50
2022-11-21T10:52:57.181Z,86.30
2022-11-21T10:55:24.093Z,86.20
2022-11-21T10:57:52.328Z,86.10
2022-11-21T11:00:25.060Z,86.00
2022-11-21T11:02:57.870Z,85.80
2022-11-21T11:05:29.343Z,85.70
2022-11-21T11:08:13.351Z,85.60
2022-11-21T11:11:01.846Z,85.30
2022-11-21T11:13:46.391Z,85.20
2022-11-21T11:16:21.806Z,85.00
2022-11-21T11:19:00.318Z,84.90
2022-11-21T11:21:30.172Z,84.80
2022-11-21T11:24:10.499Z,84.90
2022-11-21T11:26:49.742Z,84.80
2022-11-21T11:29:25.102Z,84.70
2022-11-21T11:32:20.591Z,84.70
2022-11-21T11:34:51.223Z,84.70
2022-11-21T11:37:40.301Z,84.80
2022-11-21T11:40:29.941Z,84.90
2022-11-21T11:43:39.550Z,84.90
2022-11-21T11:46:41.085Z,85.00
2022-11-21T11:49:56.595Z,85.10
2022-11-21T11:52:27.790Z,85.30
2022-11-21T11:55:02.208Z,85.30
2022-11-21T11:57:32.554Z,85.20
2022-11-21T12:00:24.240Z,85.30
2022-11-21T12:03:06.120Z,85.40
2022-11-21T12:05:33.393Z,85.50
2022-11-21T12:08:40.058Z,85.80
2022-11-21T12:11:22.394Z,86.60
2022-11-21T12:13:55.643Z,86.00
2022-11-21T12:16:26.829Z,86.00
2022-11-21T12:19:03.221Z,86.00
2022-11-21T12:21:30.185Z,86.10
2022-11-21T12:23:58.989Z,86.10
2022-11-21T12:26:48.372Z,86.00
2022-11-21T12:29:26.172Z,86.20
2022-11-21T12:32:07.970Z,86.10
2022-11-21T12:34:43.887Z,86.10
2022-11-21T12:37:52.523Z,86.10
2022-11-21T12:40:35.610Z,86.10
2022-11-21T12:43:11.530Z,86.20
2022-11-21T12:45:47.307Z,86.10
2022-11-21T12:48:36.144Z,86.20
2022-11-21T12:51:33.215Z,86.10
2022-11-21T12:54:34.118Z,86.10
2022-11-21T12:57:00.900Z,86.10
2022-11-21T12:59:31.173Z,86.10
2022-11-21T13:02:25.496Z,86.10
2022-11-21T13:04:56.531Z,86.10
2022-11-21T13:07:25.788Z,86.10
2022-11-21T13:09:55.143Z,86.00
2022-11-21T13:12:45.965Z,86.00
2022-11-21T13:15:35.420Z,86.10
2022-11-21T13:18:34.190Z,86.00
2022-11-21T13:21:01.031Z,86.00
2022-11-21T13:23:39.906Z,86.40
2022-11-21T13:26:24.724Z,86.00
2022-11-21T13:29:06.995Z,86.10
2022-11-21T13:31:34.744Z,86.10
2022-11-21T13:34:05.730Z,86.20
2022-11-21T13:36:32.552Z,86.10
2022-11-21T13:39:00.033Z,86.10
2022-11-21T13:41:54.424Z,86.20
2022-11-21T13:44:33.626Z,86.20
2022-11-21T13:47:09.742Z,86.20
2022-11-21T13:49:40.134Z,86.20
2022-11-21T13:52:14.345Z,86.20
2022-11-21T13:54:56.190Z,86.20
2022-11-21T13:57:30.914Z,86.30
2022-11-21T14:00:23.134Z,86.40
2022-11-21T14:03:28.520Z,86.40
2022-11-21T14:06:25.999Z,86.30
2022-11-21T14:09:18.258Z,86.30
2022-11-21T14:12:04.708Z,86.30
2022-11-21T14:14:36.952Z,86.30
2022-11-21T14:17:30.071Z,86.30
2022-11-21T14:19:59.645Z,86.30
2022-11-21T14:22:58.827Z,86.30
2022-11-21T14:25:37.602Z,86.30
2022-11-21T14:28:08.334Z,86.30
2022-11-21T14:30:38.274Z,86.20
2022-11-21T14:33:24.495Z,86.40
2022-11-21T14:36:05.194Z,86.50
2022-11-21T14:38:40.373Z,86.20
2022-11-21T14:41:25.706Z,86.20
2022-11-21T14:43:58.617Z,86.30
2022-11-21T14:46:31.418Z,86.40
2022-11-21T14:49:10.064Z,86.20
2022-11-21T14:51:37.668Z,86.20
2022-11-21T14:54:04.746Z,86.30
2022-11-21T14:56:34.210Z,86.60
2022-11-21T14:59:03.459Z,86.50
2022-11-21T15:01:32.549Z,86.40
2022-11-21T15:04:01.965Z,87.20
2022-11-21T15:06:33.350Z,86.40
2022-11-21T15:11:53.860Z,86.30
2022-11-21T15:14:29.486Z,86.20
2022-11-21T15:16:58.367Z,86.20
2022-11-21T15:19:28.871Z,86.40
2022-11-21T15:21:58.449Z,86.10
2022-11-21T15:24:32.558Z,86.20
2022-11-21T15:26:59.536Z,86.20
2022-11-21T15:29:28.005Z,86.30
2022-11-21T15:32:16.578Z,86.20
2022-11-21T15:34:44.245Z,86.40
2022-11-21T15:37:18.497Z,86.00
2022-11-21T15:39:48.679Z,86.00
2022-11-21T15:42:34.291Z,86.30
2022-11-21T15:45:27.367Z,86.30
2022-11-21T15:47:55.967Z,86.00
2022-11-21T15:50:24.596Z,86.20
2022-11-21T15:52:52.531Z,86.10
2022-11-21T15:55:23.064Z,85.80
2022-11-21T15:57:49.983Z,85.90
2022-11-21T16:00:17.476Z,86.20
2022-11-21T16:02:44.326Z,85.90
2022-11-21T16:05:15.555Z,85.80
2022-11-21T16:07:42.548Z,86.00
2022-11-21T16:10:18.337Z,85.80
2022-11-21T16:12:48.559Z,85.70
2022-11-21T16:15:15.584Z,86.00
2022-11-21T16:17:42.479Z,85.70
2022-11-21T16:20:09.563Z,85.80
2022-11-21T16:22:36.418Z,86.00
2022-11-21T16:25:03.255Z,86.00
2022-11-21T16:27:32.466Z,85.80
2022-11-21T16:29:59.357Z,86.00
2022-11-21T16:32:26.648Z,86.10
2022-11-21T16:34:54.741Z,86.00
2022-11-21T16:37:21.561Z,85.70
2022-11-21T16:39:52.054Z,86.00
2022-11-21T16:42:19.724Z,85.90
2022-11-21T16:44:46.518Z,85.80
2022-11-21T16:47:14.458Z,85.90
2022-11-21T16:49:48.390Z,85.70
2022-11-21T16:52:18.101Z,85.70
2022-11-21T16:54:45.150Z,85.70
2022-11-21T16:57:12.039Z,85.70
2022-11-21T16:59:38.809Z,85.70
2022-11-21T17:02:06.407Z,85.80
2022-11-21T17:04:34.782Z,85.80
2022-11-21T17:07:02.080Z,85.90
2022-11-21T17:09:28.932Z,85.90
2022-11-21T17:11:57.880Z,85.80
2022-11-21T17:14:24.702Z,85.60
2022-11-21T17:16:52.004Z,85.70
2022-11-21T17:19:18.970Z,85.60
2022-11-21T17:21:45.771Z,85.70
2022-11-21T17:24:13.691Z,85.60
2022-11-21T17:26:40.545Z,85.60
2022-11-21T17:29:07.420Z,85.80
2022-11-21T17:31:34.537Z,85.50
2022-11-21T17:34:01.849Z,85.60
2022-11-21T17:36:30.591Z,85.50
2022-11-21T17:38:57.460Z,85.70
2022-11-21T17:41:25.948Z,85.30
2022-11-21T17:43:57.463Z,85.60
2022-11-21T17:46:25.674Z,85.50
2022-11-21T17:48:57.140Z,85.70
2022-11-21T17:51:30.555Z,85.50
2022-11-21T17:53:58.047Z,85.50
2022-11-21T17:56:27.415Z,85.40
2022-11-21T17:58:54.905Z,85.60
2022-11-21T18:01:22.714Z,85.50
2022-11-21T18:03:58.660Z,85.30
2022-11-21T18:06:27.472Z,85.20
2022-11-21T18:08:56.283Z,85.20
2022-11-21T18:11:23.192Z,85.20
2022-11-21T18:13:51.917Z,85.10
2022-11-21T18:16:21.708Z,85.20
2022-11-21T18:18:49.944Z,85.10
2022-11-21T18:21:20.038Z,85.20
2022-11-21T18:23:47.126Z,85.20
2022-11-21T18:26:15.645Z,85.00
2022-11-21T18:28:43.090Z,85.00
2022-11-21T18:31:12.558Z,85.30
2022-11-21T18:33:40.409Z,85.20
2022-11-21T18:36:08.958Z,85.00
2022-11-21T18:38:48.643Z,85.20
2022-11-21T18:41:19.233Z,85.20
2022-11-21T18:43:51.639Z,85.20
2022-11-21T18:46:19.009Z,85.20
2022-11-21T18:49:05.220Z,85.10
2022-11-21T18:51:33.193Z,85.20
2022-11-21T18:54:07.174Z,85.20
2022-11-21T18:56:35.179Z,85.30
2022-11-21T18:59:03.972Z,85.50
2022-11-21T19:01:32.837Z,85.30
2022-11-21T19:04:57.025Z,85.20
2022-11-21T19:07:24.254Z,85.60
2022-11-21T19:09:51.215Z,85.50
2022-11-21T19:12:18.139Z,85.90
2022-11-21T19:14:44.995Z,85.70
2022-11-21T19:17:11.831Z,86.10
2022-11-21T19:19:38.661Z,86.20
2022-11-21T19:22:06.269Z,86.30
2022-11-21T19:24:33.487Z,86.30
2022-11-21T19:27:00.395Z,86.90
2022-11-21T19:29:27.320Z,86.20
2022-11-21T19:31:54.374Z,86.30
2022-11-21T19:34:21.164Z,86.60
2022-11-21T19:36:48.062Z,86.40
2022-11-21T19:39:17.217Z,85.90
2022-11-21T19:41:44.235Z,86.20
2022-11-21T19:44:11.556Z,86.20
2022-11-21T19:46:39.391Z,86.20
2022-11-21T19:49:07.654Z,86.30
2022-11-21T19:51:40.075Z,86.30
2022-11-21T19:54:08.832Z,86.20
2022-11-21T19:56:36.413Z,86.00
2022-11-21T19:59:03.540Z,86.10
2022-11-21T20:01:31.972Z,86.00
2022-11-21T20:04:01.036Z,85.50
2022-11-21T20:06:31.075Z,85.90
2022-11-21T20:09:00.964Z,86.00
2022-11-21T20:11:29.861Z,86.20
2022-11-21T20:13:57.312Z,85.90
2022-11-21T20:16:52.904Z,85.90
2022-11-21T20:19:22.559Z,85.80
2022-11-21T20:21:49.779Z,85.90
2022-11-21T20:24:17.661Z,86.00
2022-11-21T20:26:45.106Z,85.80
2022-11-21T20:29:14.838Z,85.80
2022-11-21T20:31:43.166Z,85.80
2022-11-21T20:34:13.668Z,85.80
2022-11-21T20:36:41.139Z,85.80
2022-11-21T20:39:18.889Z,85.70
2022-11-21T20:41:47.170Z,85.60
2022-11-21T20:47:08.664Z,85.70
2022-11-21T20:49:35.537Z,86.30
2022-11-21T20:54:49.128Z,86.00
2022-11-21T20:57:15.958Z,85.80
2022-11-21T20:59:43.296Z,85.80
2022-11-21T21:02:14.371Z,86.80
2022-11-21T21:04:41.698Z,87.10
2022-11-21T21:07:08.593Z,87.60
2022-11-21T21:09:35.394Z,87.70
2022-11-21T21:12:02.278Z,87.70
2022-11-21T21:14:29.086Z,87.70
2022-11-21T21:16:55.887Z,86.90
2022-11-21T21:19:22.732Z,86.40
2022-11-21T21:21:49.763Z,86.40
2022-11-21T21:24:17.312Z,86.30
2022-11-21T21:26:49.054Z,86.40
2022-11-21T21:29:19.418Z,86.20
2022-11-21T21:31:51.046Z,86.10
2022-11-21T21:34:20.846Z,86.00
2022-11-21T21:36:48.094Z,86.10
2022-11-21T21:39:14.992Z,85.90
2022-11-21T21:41:46.786Z,85.80
2022-11-21T21:44:14.607Z,85.70
2022-11-21T21:46:41.521Z,85.70
2022-11-21T21:49:08.313Z,85.60
2022-11-21T21:51:37.315Z,85.50
2022-11-21T21:54:04.654Z,85.50
2022-11-21T21:56:31.552Z,85.50
2022-11-21T21:58:59.438Z,85.40
2022-11-21T22:01:31.901Z,85.40
2022-11-21T22:04:01.166Z,85.40
2022-11-21T22:06:28.577Z,85.30
2022-11-21T22:08:56.178Z,85.20
2022-11-21T22:11:25.399Z,85.20
2022-11-21T22:14:03.226Z,85.20
2022-11-21T22:16:30.702Z,85.10
2022-11-21T22:18:58.138Z,85.10
2022-11-21T22:21:33.063Z,85.10
2022-11-21T22:26:48.292Z,85.20
2022-11-21T22:29:15.153Z,85.00
2022-11-21T22:31:41.922Z,85.10
2022-11-21T22:34:12.299Z,85.20
2022-11-21T22:36:39.065Z,85.00
2022-11-21T22:39:05.848Z,85.00
2022-11-21T22:41:32.663Z,85.00
2022-11-21T22:44:00.536Z,85.60
2022-11-21T22:46:29.112Z,86.70
2022-11-21T22:48:56.180Z,86.70
2022-11-21T22:51:26.148Z,86.80
2022-11-21T22:53:53.457Z,87.00
2022-11-21T22:56:22.763Z,87.20
2022-11-21T22:58:50.224Z,87.00
2022-11-21T23:01:22.869Z,87.10
2022-11-21T23:03:50.155Z,87.10
2022-11-21T23:06:19.602Z,87.10
2022-11-21T23:08:46.780Z,87.00
2022-11-21T23:11:16.244Z,87.00
2022-11-21T23:13:44.774Z,87.20
2022-11-21T23:16:12.530Z,88.30
2022-11-21T23:18:39.598Z,87.30
2022-11-21T23:21:07.442Z,87.60
2022-11-21T23:23:34.324Z,87.50
2022-11-21T23:26:01.161Z,88.00
2022-11-21T23:28:28.027Z,88.10
2022-11-21T23:30:54.910Z,88.10
2022-11-21T23:33:21.823Z,87.90
2022-11-21T23:35:48.947Z,88.30
2022-11-21T23:38:17.318Z,88.30
2022-11-21T23:40:48.850Z,88.40
2022-11-21T23:43:17.307Z,88.50
2022-11-21T23:45:45.569Z,88.90
2022-11-21T23:48:12.434Z,88.90
2022-11-21T23:50:39.336Z,89.00
2022-11-21T23:53:06.226Z,89.20
2022-11-21T23:55:33.050Z,89.10
2022-11-21T23:57:59.864Z,89.50
